Time,TemperatureF,DewpointF,PressureIn,WindDirection,WindDirectionDegrees,WindSpeedMPH,WindSpeedGustMPH,Humidity,HourlyPrecipIn,Conditions,Clouds,dailyrainin,SoftwareType,DateUTC
2013-03-19 00:02:00,33.0,24.0,29.99,NW,315,6.0,8.0,68,-99.99,,,-99.99,,2013-03-19 05:02:00,
2013-03-19 00:12:00,33.0,23.0,29.99,NW,315,5.0,7.0,67,-99.99,,,-99.99,,2013-03-19 05:12:00,
2013-03-19 00:22:00,33.0,22.0,29.99,WNW,292,6.0,8.0,65,-99.99,,,-99.99,,2013-03-19 05:22:00,
2013-03-19 00:32:00,33.0,23.0,30.00,WNW,292,5.0,9.0,65,-99.99,,,-99.99,,2013-03-19 05:32:00,
2013-03-19 00:42:00,33.0,22.0,29.99,NW,315,6.0,9.0,65,-99.99,,,-99.99,,2013-03-19 05:42:00,
2013-03-19 00:52:00,32.0,23.0,30.00,WNW,292,5.0,7.0,70,-99.99,,,-99.99,,2013-03-19 05:52:00,
2013-03-19 01:02:00,32.0,23.0,30.00,WNW,292,5.0,8.0,69,-99.99,,,-99.99,,2013-03-19 06:02:00,
2013-03-19 01:12:00,32.0,23.0,30.00,WNW,292,6.0,7.0,69,-99.99,,,-99.99,,2013-03-19 06:12:00,
2013-03-19 01:22:00,32.0,23.0,30.00,NW,315,5.0,7.0,72,-99.99,,,-99.99,,2013-03-19 06:22:00,
2013-03-19 01:32:00,31.0,23.0,30.00,NW,315,4.0,7.0,71,-99.99,,,-99.99,,2013-03-19 06:32:00,
2013-03-19 01:42:00,31.0,22.0,30.00,WNW,292,5.0,6.0,69,-99.99,,,-99.99,,2013-03-19 06:42:00,
2013-03-19 01:52:00,31.0,23.0,30.00,WNW,292,4.0,6.0,71,-99.99,,,-99.99,,2013-03-19 06:52:00,
2013-03-19 02:02:00,31.0,22.0,30.00,West,270,5.0,6.0,70,-99.99,,,-99.99,,2013-03-19 07:02:00,
2013-03-19 02:12:00,31.0,21.0,30.00,WNW,292,4.0,7.0,66,-99.99,,,-99.99,,2013-03-19 07:12:00,
2013-03-19 02:21:00,30.0,23.0,30.01,WNW,292,5.0,7.0,74,-99.99,,,-99.99,,2013-03-19 07:21:00,
2013-03-19 02:32:00,29.0,23.0,30.02,WNW,292,3.0,5.0,76,-99.99,,,-99.99,,2013-03-19 07:32:00,
2013-03-19 02:42:00,30.0,20.0,30.01,West,270,3.0,4.0,66,-99.99,,,-99.99,,2013-03-19 07:42:00,
2013-03-19 02:52:00,28.0,20.0,30.02,West,270,4.0,6.0,70,-99.99,,,-99.99,,2013-03-19 07:52:00,
2013-03-19 03:02:00,29.0,19.0,30.03,WNW,292,3.0,6.0,66,-99.99,,,-99.99,,2013-03-19 08:02:00,
2013-03-19 03:12:00,29.0,19.0,30.03,WNW,292,4.0,6.0,67,-99.99,,,-99.99,,2013-03-19 08:12:00,
2013-03-19 03:22:00,29.0,19.0,30.03,West,270,4.0,6.0,66,-99.99,,,-99.99,,2013-03-19 08:22:00,
2013-03-19 03:32:00,29.0,18.0,30.02,West,270,4.0,6.0,64,-99.99,,,-99.99,,2013-03-19 08:32:00,
2013-03-19 03:42:00,30.0,19.0,30.01,WNW,292,3.0,5.0,64,-99.99,,,-99.99,,2013-03-19 08:42:00,
2013-03-19 03:52:00,28.0,19.0,30.02,WSW,247,3.0,4.0,69,-99.99,,,-99.99,,2013-03-19 08:52:00,
2013-03-19 04:02:00,28.0,18.0,30.01,West,270,3.0,4.0,66,-99.99,,,-99.99,,2013-03-19 09:02:00,
2013-03-19 04:12:00,29.0,22.0,30.02,WNW,292,4.0,6.0,74,-99.99,,,-99.99,,2013-03-19 09:12:00,
2013-03-19 04:22:00,29.0,22.0,30.02,WNW,292,4.0,7.0,75,-99.99,,,-99.99,,2013-03-19 09:22:00,
2013-03-19 04:32:00,29.0,23.0,30.03,WNW,292,4.0,6.0,76,-99.99,,,-99.99,,2013-03-19 09:32:00,
2013-03-19 04:42:00,29.0,20.0,30.02,West,270,4.0,6.0,70,-99.99,,,-99.99,,2013-03-19 09:42:00,
2013-03-19 04:52:00,30.0,22.0,30.03,WNW,292,7.0,9.0,72,-99.99,,,-99.99,,2013-03-19 09:52:00,
2013-03-19 05:03:00,30.0,20.0,30.03,West,270,6.0,9.0,66,-99.99,,,-99.99,,2013-03-19 10:03:00,
2013-03-19 05:12:00,29.0,19.0,30.03,West,270,4.0,7.0,66,-99.99,,,-99.99,,2013-03-19 10:12:00,
2013-03-19 05:23:00,30.0,21.0,30.03,WNW,292,6.0,8.0,70,-99.99,,,-99.99,,2013-03-19 10:23:00,
2013-03-19 05:32:00,30.0,22.0,30.05,WNW,292,7.0,9.0,71,-99.99,,,-99.99,,2013-03-19 10:32:00,
2013-03-19 05:42:00,30.0,22.0,30.05,WNW,292,7.0,9.0,72,-99.99,,,-99.99,,2013-03-19 10:42:00,
2013-03-19 05:52:00,30.0,21.0,30.05,WNW,292,6.0,8.0,69,-99.99,,,-99.99,,2013-03-19 10:52:00,
2013-03-19 06:02:00,30.0,21.0,30.06,WNW,292,7.0,9.0,70,-99.99,,,-99.99,,2013-03-19 11:02:00,
2013-03-19 06:12:00,29.0,20.0,30.05,West,270,5.0,8.0,68,-99.99,,,-99.99,,2013-03-19 11:12:00,
2013-03-19 06:22:00,28.0,20.0,30.06,West,270,4.0,5.0,71,-99.99,,,-99.99,,2013-03-19 11:22:00,
2013-03-19 06:32:00,28.0,20.0,30.06,WSW,247,4.0,6.0,73,-99.99,,,-99.99,,2013-03-19 11:32:00,
2013-03-19 06:42:00,27.0,20.0,30.06,West,270,4.0,4.0,74,-99.99,,,-99.99,,2013-03-19 11:42:00,
2013-03-19 06:52:00,27.0,20.0,30.06,West,270,4.0,7.0,73,-99.99,,,-99.99,,2013-03-19 11:52:00,
2013-03-19 07:02:00,28.0,20.0,30.07,WSW,247,4.0,7.0,70,-99.99,,,-99.99,,2013-03-19 12:02:00,
2013-03-19 07:12:00,28.0,20.0,30.08,West,270,4.0,6.0,70,-99.99,,,-99.99,,2013-03-19 12:12:00,
2013-03-19 07:22:00,29.0,18.0,30.07,West,270,6.0,11.0,64,-99.99,,,-99.99,,2013-03-19 12:22:00,
2013-03-19 07:32:00,30.0,19.0,30.08,WNW,292,6.0,9.0,64,-99.99,,,-99.99,,2013-03-19 12:32:00,
2013-03-19 07:42:00,30.0,19.0,30.07,WNW,292,5.0,9.0,62,-99.99,,,-99.99,,2013-03-19 12:42:00,
2013-03-19 07:52:00,30.0,20.0,30.08,WNW,292,7.0,9.0,66,-99.99,,,-99.99,,2013-03-19 12:52:00,
2013-03-19 08:02:00,30.0,20.0,30.08,WNW,292,8.0,11.0,66,-99.99,,,-99.99,,2013-03-19 13:02:00,
2013-03-19 08:12:00,30.0,19.0,30.08,NW,315,8.0,10.0,63,-99.99,,,-99.99,,2013-03-19 13:12:00,
2013-03-19 08:22:00,31.0,19.0,30.08,NW,315,9.0,13.0,62,-99.99,,,-99.99,,2013-03-19 13:22:00,
2013-03-19 08:32:00,31.0,19.0,30.08,NW,315,10.0,13.0,60,-99.99,,,-99.99,,2013-03-19 13:32:00,
2013-03-19 08:42:00,31.0,19.0,30.09,WNW,292,9.0,11.0,61,-99.99,,,-99.99,,2013-03-19 13:42:00,
2013-03-19 08:52:00,32.0,19.0,30.11,WNW,292,9.0,12.0,57,-99.99,,,-99.99,,2013-03-19 13:52:00,
2013-03-19 09:02:00,32.0,19.0,30.11,NW,315,12.0,16.0,58,-99.99,,,-99.99,,2013-03-19 14:02:00,
2013-03-19 09:12:00,32.0,18.0,30.12,WNW,292,10.0,14.0,57,-99.99,,,-99.99,,2013-03-19 14:12:00,
2013-03-19 09:22:00,32.0,19.0,30.13,West,270,9.0,13.0,57,-99.99,,,-99.99,,2013-03-19 14:22:00,
2013-03-19 09:32:00,32.0,18.0,30.13,NW,315,9.0,12.0,54,-99.99,,,-99.99,,2013-03-19 14:32:00,
2013-03-19 09:42:00,32.0,20.0,30.13,WNW,292,9.0,12.0,59,-99.99,,,-99.99,,2013-03-19 14:42:00,
2013-03-19 09:52:00,32.0,20.0,30.13,WNW,292,9.0,12.0,59,-99.99,,,-99.99,,2013-03-19 14:52:00,
2013-03-19 10:02:00,32.0,20.0,30.13,WNW,292,9.0,12.0,59,-99.99,,,-99.99,,2013-03-19 15:02:00,
2013-03-19 10:12:00,34.0,20.0,30.15,WNW,292,9.0,13.0,55,-99.99,,,-99.99,,2013-03-19 15:12:00,
2013-03-19 10:22:00,35.0,20.0,30.16,West,270,8.0,12.0,56,-99.99,,,-99.99,,2013-03-19 15:22:00,
2013-03-19 10:34:00,35.0,18.0,30.16,WNW,292,9.0,12.0,49,-99.99,,,-99.99,,2013-03-19 15:34:00,
2013-03-19 10:43:00,36.0,21.0,30.16,WNW,292,9.0,14.0,54,-99.99,,,-99.99,,2013-03-19 15:43:00,
2013-03-19 10:53:00,36.0,18.0,30.16,NW,315,8.0,11.0,46,-99.99,,,-99.99,,2013-03-19 15:53:00,
2013-03-19 11:03:00,36.0,17.0,30.16,NW,315,8.0,13.0,46,-99.99,,,-99.99,,2013-03-19 16:03:00,
2013-03-19 11:13:00,37.0,16.0,30.17,WNW,292,9.0,13.0,42,-99.99,,,-99.99,,2013-03-19 16:13:00,
2013-03-19 11:23:00,37.0,16.0,30.17,NW,315,8.0,12.0,41,-99.99,,,-99.99,,2013-03-19 16:23:00,
2013-03-19 11:34:00,38.0,23.0,30.17,West,270,9.0,13.0,56,-99.99,,,-99.99,,2013-03-19 16:34:00,
2013-03-19 11:43:00,38.0,16.0,30.17,NW,315,8.0,12.0,40,-99.99,,,-99.99,,2013-03-19 16:43:00,
2013-03-19 11:53:00,39.0,21.0,30.17,WNW,292,9.0,13.0,49,-99.99,,,-99.99,,2013-03-19 16:53:00,
2013-03-19 12:03:00,39.0,17.0,30.17,WNW,292,6.0,11.0,40,-99.99,,,-99.99,,2013-03-19 17:03:00,
2013-03-19 12:13:00,38.0,17.0,30.17,NNW,337,9.0,12.0,41,-99.99,,,-99.99,,2013-03-19 17:13:00,
2013-03-19 12:23:00,39.0,20.0,30.17,West,270,7.0,9.0,46,-99.99,,,-99.99,,2013-03-19 17:23:00,
2013-03-19 12:34:00,40.0,18.0,30.17,WNW,292,6.0,11.0,41,-99.99,,,-99.99,,2013-03-19 17:34:00,
2013-03-19 12:43:00,40.0,17.0,30.18,NW,315,11.0,15.0,39,-99.99,,,-99.99,,2013-03-19 17:43:00,
2013-03-19 12:52:00,39.0,12.0,30.17,NNW,337,7.0,10.0,32,-99.99,,,-99.99,,2013-03-19 17:52:00,
2013-03-19 13:02:00,41.0,16.0,30.18,WNW,292,6.0,11.0,37,-99.99,,,-99.99,,2013-03-19 18:02:00,
2013-03-19 13:13:00,41.0,14.0,30.18,WNW,292,8.0,13.0,33,-99.99,,,-99.99,,2013-03-19 18:13:00,
2013-03-19 13:23:00,41.0,14.0,30.18,WNW,292,9.0,13.0,33,-99.99,,,-99.99,,2013-03-19 18:23:00,
2013-03-19 13:33:00,41.0,15.0,30.17,WNW,292,7.0,11.0,33,-99.99,,,-99.99,,2013-03-19 18:33:00,
2013-03-19 13:42:00,42.0,17.0,30.17,NW,315,6.0,10.0,36,-99.99,,,-99.99,,2013-03-19 18:42:00,
2013-03-19 13:52:00,42.0,11.0,30.17,NNW,337,6.0,11.0,28,-99.99,,,-99.99,,2013-03-19 18:52:00,
2013-03-19 14:02:00,43.0,17.0,30.16,East,90,6.0,10.0,34,-99.99,,,-99.99,,2013-03-19 19:02:00,
2013-03-19 14:12:00,42.0,11.0,30.16,NNW,337,6.0,8.0,27,-99.99,,,-99.99,,2013-03-19 19:12:00,
2013-03-19 14:22:00,43.0,15.0,30.16,NNW,337,5.0,8.0,32,-99.99,,,-99.99,,2013-03-19 19:22:00,
2013-03-19 14:32:00,43.0,22.0,30.16,WNW,292,5.0,9.0,42,-99.99,,,-99.99,,2013-03-19 19:32:00,
2013-03-19 14:42:00,43.0,17.0,30.16,NW,315,7.0,13.0,35,-99.99,,,-99.99,,2013-03-19 19:42:00,
2013-03-19 14:52:00,44.0,13.0,30.15,NW,315,6.0,9.0,28,-99.99,,,-99.99,,2013-03-19 19:52:00,
2013-03-19 15:02:00,45.0,11.0,30.15,WSW,247,2.0,6.0,24,-99.99,,,-99.99,,2013-03-19 20:02:00,
2013-03-19 15:12:00,43.0,10.0,30.15,WNW,292,8.0,11.0,25,-99.99,,,-99.99,,2013-03-19 20:12:00,
2013-03-19 15:22:00,44.0,21.0,30.15,NW,315,5.0,9.0,40,-99.99,,,-99.99,,2013-03-19 20:22:00,
2013-03-19 15:32:00,43.0,11.0,30.15,NW,315,6.0,10.0,26,-99.99,,,-99.99,,2013-03-19 20:32:00,
2013-03-19 15:42:00,43.0,12.0,30.15,NW,315,4.0,8.0,28,-99.99,,,-99.99,,2013-03-19 20:42:00,
2013-03-19 15:52:00,43.0,12.0,30.15,NW,315,4.0,8.0,28,-99.99,,,-99.99,,2013-03-19 20:52:00,
2013-03-19 16:02:00,43.0,12.0,30.15,NW,315,4.0,8.0,28,-99.99,,,-99.99,,2013-03-19 21:02:00,
2013-03-19 16:12:00,43.0,12.0,30.15,NW,315,4.0,8.0,28,-99.99,,,-99.99,,2013-03-19 21:12:00,
2013-03-19 16:22:00,43.0,12.0,30.15,NW,315,4.0,8.0,28,-99.99,,,-99.99,,2013-03-19 21:22:00,
2013-03-19 16:34:00,44.0,16.0,30.15,WNW,292,4.0,7.0,32,-99.99,,,-99.99,,2013-03-19 21:34:00,
2013-03-19 16:43:00,44.0,15.0,30.15,WNW,292,7.0,9.0,31,-99.99,,,-99.99,,2013-03-19 21:43:00,
2013-03-19 16:53:00,44.0,18.0,30.15,WNW,292,5.0,8.0,35,-99.99,,,-99.99,,2013-03-19 21:53:00,
2013-03-19 17:03:00,45.0,18.0,30.16,SW,225,5.0,7.0,34,-99.99,,,-99.99,,2013-03-19 22:03:00,
2013-03-19 17:12:00,45.0,21.0,30.15,West,270,5.0,10.0,39,-99.99,,,-99.99,,2013-03-19 22:12:00,
2013-03-19 17:23:00,44.0,16.0,30.16,WNW,292,10.0,12.0,32,-99.99,,,-99.99,,2013-03-19 22:23:00,
2013-03-19 17:33:00,44.0,17.0,30.15,NW,315,7.0,11.0,33,-99.99,,,-99.99,,2013-03-19 22:33:00,
2013-03-19 17:43:00,44.0,16.0,30.16,WNW,292,6.0,8.0,32,-99.99,,,-99.99,,2013-03-19 22:43:00,
2013-03-19 17:52:00,44.0,22.0,30.16,WNW,292,6.0,9.0,41,-99.99,,,-99.99,,2013-03-19 22:52:00,
2013-03-19 18:02:00,44.0,16.0,30.15,NW,315,6.0,9.0,32,-99.99,,,-99.99,,2013-03-19 23:02:00,
2013-03-19 18:12:00,44.0,13.0,30.15,West,270,6.0,10.0,29,-99.99,,,-99.99,,2013-03-19 23:12:00,
2013-03-19 18:22:00,43.0,12.0,30.15,WSW,247,6.0,10.0,28,-99.99,,,-99.99,,2013-03-19 23:22:00,
2013-03-19 18:32:00,43.0,13.0,30.15,West,270,4.0,7.0,30,-99.99,,,-99.99,,2013-03-19 23:32:00,
2013-03-19 18:42:00,43.0,15.0,30.15,WNW,292,4.0,8.0,32,-99.99,,,-99.99,,2013-03-19 23:42:00,
2013-03-19 18:52:00,41.0,23.0,30.16,WNW,292,4.0,6.0,48,-99.99,,,-99.99,,2013-03-19 23:52:00,
2013-03-19 19:02:00,41.0,23.0,30.16,West,270,5.0,6.0,49,-99.99,,,-99.99,,2013-03-20 00:02:00,
2013-03-19 19:12:00,41.0,14.0,30.16,WNW,292,3.0,6.0,33,-99.99,,,-99.99,,2013-03-20 00:12:00,
2013-03-19 19:22:00,41.0,14.0,30.15,WSW,247,3.0,6.0,33,-99.99,,,-99.99,,2013-03-20 00:22:00,
2013-03-19 19:32:00,40.0,14.0,30.15,West,270,3.0,4.0,35,-99.99,,,-99.99,,2013-03-20 00:32:00,
2013-03-19 19:42:00,39.0,16.0,30.16,West,270,3.0,4.0,38,-99.99,,,-99.99,,2013-03-20 00:42:00,
2013-03-19 19:52:00,38.0,16.0,30.15,West,270,3.0,4.0,41,-99.99,,,-99.99,,2013-03-20 00:52:00,
2013-03-19 20:02:00,38.0,16.0,30.15,West,270,3.0,4.0,42,-99.99,,,-99.99,,2013-03-20 01:02:00,
2013-03-19 20:12:00,38.0,16.0,30.15,WSW,247,2.0,3.0,41,-99.99,,,-99.99,,2013-03-20 01:12:00,
2013-03-19 20:22:00,38.0,15.0,30.15,WSW,247,2.0,3.0,39,-99.99,,,-99.99,,2013-03-20 01:22:00,
2013-03-19 20:32:00,38.0,15.0,30.15,SW,225,2.0,3.0,40,-99.99,,,-99.99,,2013-03-20 01:32:00,
2013-03-19 20:42:00,37.0,16.0,30.15,SW,225,2.0,3.0,40,-99.99,,,-99.99,,2013-03-20 01:42:00,
2013-03-19 20:52:00,37.0,19.0,30.15,West,270,1.0,3.0,48,-99.99,,,-99.99,,2013-03-20 01:52:00,
2013-03-19 21:02:00,37.0,17.0,30.15,West,270,4.0,4.0,44,-99.99,,,-99.99,,2013-03-20 02:02:00,
2013-03-19 21:12:00,35.0,17.0,30.15,WSW,247,3.0,4.0,47,-99.99,,,-99.99,,2013-03-20 02:12:00,
2013-03-19 21:22:00,34.0,19.0,30.16,West,270,3.0,4.0,52,-99.99,,,-99.99,,2013-03-20 02:22:00,
2013-03-19 21:32:00,34.0,19.0,30.16,WSW,247,4.0,4.0,55,-99.99,,,-99.99,,2013-03-20 02:32:00,
2013-03-19 21:42:00,34.0,21.0,30.16,WSW,247,4.0,6.0,58,-99.99,,,-99.99,,2013-03-20 02:42:00,
2013-03-19 21:52:00,34.0,22.0,30.16,West,270,4.0,6.0,60,-99.99,,,-99.99,,2013-03-20 02:52:00,
2013-03-19 22:02:00,34.0,23.0,30.16,West,270,5.0,7.0,63,-99.99,,,-99.99,,2013-03-20 03:02:00,
2013-03-19 22:12:00,34.0,24.0,30.16,West,270,5.0,6.0,67,-99.99,,,-99.99,,2013-03-20 03:12:00,
2013-03-19 22:22:00,34.0,24.0,30.17,West,270,4.0,6.0,68,-99.99,,,-99.99,,2013-03-20 03:22:00,
2013-03-19 22:33:00,33.0,25.0,30.17,WSW,247,4.0,5.0,71,-99.99,,,-99.99,,2013-03-20 03:33:00,
2013-03-19 22:42:00,33.0,25.0,30.16,West,270,4.0,4.0,72,-99.99,,,-99.99,,2013-03-20 03:42:00,
2013-03-19 22:53:00,33.0,25.0,30.16,WSW,247,4.0,7.0,72,-99.99,,,-99.99,,2013-03-20 03:53:00,
2013-03-19 23:02:00,32.0,25.0,30.16,WSW,247,4.0,6.0,75,-99.99,,,-99.99,,2013-03-20 04:02:00,
2013-03-19 23:12:00,32.0,26.0,30.16,WSW,247,4.0,6.0,77,-99.99,,,-99.99,,2013-03-20 04:12:00,
2013-03-19 23:22:00,32.0,26.0,30.16,WSW,247,4.0,5.0,79,-99.99,,,-99.99,,2013-03-20 04:22:00,
2013-03-19 23:32:00,32.0,26.0,30.16,WSW,247,3.0,4.0,80,-99.99,,,-99.99,,2013-03-20 04:32:00,
2013-03-19 23:43:00,32.0,27.0,30.16,WSW,247,4.0,5.0,81,-99.99,,,-99.99,,2013-03-20 04:43:00,
2013-03-19 23:52:00,31.0,27.0,30.16,WSW,247,4.0,4.0,83,-99.99,,,-99.99,,2013-03-20 04:52:00,